Terminal Aerodrome Forecast
Issued by NWS Binghamton, NY

Home | Current Version | Previous Version | Text Only | Print | Product List | Glossary On
Versions: 1 2 3 4 5 6 7 8 9 10 11 12 13 14 15 16 17 18 19
000
FTUS41 KBGM 211137
TAFAVP
TAF
KAVP 211137Z 2112/2212 20005KT P6SM FEW250 WS020/23035KT
     FM211600 21010G17KT P6SM SKC
     FM220000 19006KT P6SM FEW250 WS020/22037KT
     FM220500 21005KT P6SM BKN050
     FM221100 27006KT P6SM BKN025 OVC040=

USA.gov is the U.S. government's official web portal to all federal, state and local government web resources and services.